Time,TemperatureF,DewpointF,PressureIn,WindDirection,WindDirectionDegrees,WindSpeedMPH,WindSpeedGustMPH,Humidity,HourlyPrecipIn,Conditions,Clouds,dailyrainin,SoftwareType,DateUTC
2013-03-23 00:00:00,77.1,75.2,29.90,ESE,112,1.9,3.8,94,0.00,,FEW025,0.00,VWS V13.01,2013-03-22 14:00:00,
2013-03-23 00:15:00,77.1,75.2,29.89,ESE,112,3.1,5.0,94,0.00,,FEW025,0.00,VWS V13.01,2013-03-22 14:15:00,
2013-03-23 00:30:00,77.1,75.2,29.89,ESE,112,1.9,5.0,94,0.00,,FEW025,0.00,VWS V13.01,2013-03-22 14:30:00,
2013-03-23 00:45:00,77.3,75.1,29.87,ESE,112,0.6,2.5,93,0.00,,FEW025,0.00,VWS V13.01,2013-03-22 14:45:00,
2013-03-23 01:00:00,77.3,75.1,29.87,ESE,112,0.6,2.5,93,0.00,,FEW025,0.00,VWS V13.01,2013-03-22 15:00:00,
2013-03-23 01:15:00,77.2,75.3,29.87,ESE,112,0.6,1.3,94,0.00,,FEW025,0.00,VWS V13.01,2013-03-22 15:15:00,
2013-03-23 01:30:00,77.1,75.2,29.86,ESE,112,0.6,0.0,94,0.00,,FEW025,0.00,VWS V13.01,2013-03-22 15:30:00,
2013-03-23 01:45:00,77.0,75.1,29.85,SE,135,1.9,8.7,94,0.03,,FEW025,0.03,VWS V13.01,2013-03-22 15:45:00,
2013-03-23 02:00:00,76.9,75.1,29.85,ESE,112,1.9,3.8,94,0.03,,FEW025,0.03,VWS V13.01,2013-03-22 16:00:00,
2013-03-23 02:15:00,76.8,74.9,29.84,ESE,112,0.6,3.8,94,0.04,,FEW025,0.04,VWS V13.01,2013-03-22 16:15:00,
2013-03-23 02:30:00,76.8,74.9,29.83,SE,135,3.1,6.2,94,0.04,,FEW025,0.04,VWS V13.01,2013-03-22 16:30:00,
2013-03-23 02:45:00,77.0,75.1,29.82,ESE,112,3.1,7.5,94,0.04,,FEW025,0.04,VWS V13.01,2013-03-22 16:45:00,
2013-03-23 03:00:00,77.1,75.2,29.82,SE,135,3.1,11.3,94,0.01,,FEW025,0.04,VWS V13.01,2013-03-22 17:00:00,
2013-03-23 03:15:00,77.1,75.2,29.81,ESE,112,3.1,6.2,94,0.01,,FEW025,0.04,VWS V13.01,2013-03-22 17:15:00,
2013-03-23 03:30:00,77.2,75.3,29.82,SE,135,3.1,8.7,94,0.00,,FEW025,0.04,VWS V13.01,2013-03-22 17:30:00,
2013-03-23 03:45:00,77.2,75.3,29.82,ESE,112,1.9,5.0,94,0.00,,FEW025,0.04,VWS V13.01,2013-03-22 17:45:00,
2013-03-23 04:00:00,77.2,75.3,29.82,ESE,112,1.9,6.2,94,0.00,,FEW025,0.04,VWS V13.01,2013-03-22 18:00:00,
2013-03-23 04:15:00,77.3,75.1,29.82,ESE,112,1.9,5.0,93,0.00,,FEW025,0.04,VWS V13.01,2013-03-22 18:15:00,
2013-03-23 04:30:00,77.4,75.2,29.82,SE,135,1.9,6.2,93,0.00,,FEW025,0.04,VWS V13.01,2013-03-22 18:30:00,
2013-03-23 04:45:00,77.5,75.3,29.83,SE,135,1.9,6.2,93,0.00,,FEW025,0.04,VWS V13.01,2013-03-22 18:45:00,
2013-03-23 05:00:00,77.6,75.4,29.83,ESE,112,1.9,6.2,93,0.00,,FEW025,0.04,VWS V13.01,2013-03-22 19:00:00,
2013-03-23 05:15:00,77.6,75.4,29.82,ESE,112,1.9,7.5,93,0.00,,FEW025,0.04,VWS V13.01,2013-03-22 19:15:00,
2013-03-23 05:30:00,77.8,75.6,29.83,ESE,112,1.9,7.5,93,0.00,,FEW025,0.04,VWS V13.01,2013-03-22 19:30:00,
2013-03-23 05:45:00,78.0,75.8,29.84,ESE,112,3.1,6.2,93,0.06,,FEW025,0.10,VWS V13.01,2013-03-22 19:45:00,
2013-03-23 06:00:00,77.8,75.9,29.84,ESE,112,1.9,6.2,94,0.08,,FEW025,0.12,VWS V13.01,2013-03-22 20:00:00,
2013-03-23 06:15:00,77.6,75.7,29.85,SE,135,1.9,7.5,94,0.09,,FEW025,0.13,VWS V13.01,2013-03-22 20:15:00,
2013-03-23 06:30:00,77.5,75.6,29.86,ESE,112,1.9,6.2,94,0.09,,FEW025,0.13,VWS V13.01,2013-03-22 20:30:00,
2013-03-23 06:45:00,77.6,75.7,29.86,ESE,112,0.6,5.0,94,0.09,,FEW025,0.13,VWS V13.01,2013-03-22 20:45:00,
2013-03-23 07:00:00,77.7,75.8,29.86,ESE,112,1.9,8.7,94,0.02,,FEW025,0.13,VWS V13.01,2013-03-22 21:00:00,
2013-03-23 07:20:00,78.3,76.4,29.87,SE,132,1.0,2.0,94,0.00,,,0.13,Wunderground v.1.15,2013-03-22 21:20:00,
2013-03-23 07:25:00,78.6,76.7,29.87,SE,135,1.9,5.0,94,0.00,,FEW025,0.13,VWS V13.01,2013-03-22 21:25:00,
2013-03-23 07:30:00,79.1,77.2,29.87,SE,130,0.6,5.0,94,0.00,,FEW025,0.13,VWS V13.01,2013-03-22 21:30:00,
2013-03-23 07:35:00,79.4,77.5,29.87,SE,134,4.4,5.0,94,0.00,,BKN050,0.13,VWS V13.01,2013-03-22 21:35:00,
2013-03-23 07:40:00,79.3,77.1,29.87,SSW,213,4.4,5.0,93,0.00,,BKN050,0.13,VWS V13.01,2013-03-22 21:40:00,
2013-03-23 07:45:00,79.2,76.7,29.87,SE,140,3.1,5.0,92,0.00,,BKN050,0.13,VWS V13.01,2013-03-22 21:45:00,
2013-03-23 07:50:00,79.2,76.7,29.87,South,169,4.4,5.0,92,0.00,,BKN060,0.13,VWS V13.01,2013-03-22 21:50:00,
2013-03-23 07:55:00,79.3,76.8,29.88,SE,137,3.1,5.0,92,0.00,,BKN060,0.13,VWS V13.01,2013-03-22 21:55:00,
2013-03-23 08:00:00,79.3,76.8,29.88,SE,132,1.9,5.0,92,0.00,,BKN060,0.13,VWS V13.01,2013-03-22 22:00:00,
2013-03-23 08:05:00,78.9,76.4,29.88,NW,315,0.6,5.0,92,0.00,,BKN060,0.13,VWS V13.01,2013-03-22 22:05:00,
2013-03-23 08:10:00,78.9,76.4,29.88,NW,315,0.6,5.0,92,0.00,,BKN060,0.13,VWS V13.01,2013-03-22 22:10:00,
2013-03-23 08:15:00,78.9,76.4,29.89,WNW,294,0.6,5.0,92,0.00,,BKN060,0.13,VWS V13.01,2013-03-22 22:15:00,
2013-03-23 08:20:00,78.9,76.4,29.89,West,269,0.6,5.0,92,0.30,,BKN060,0.43,VWS V13.01,2013-03-22 22:20:00,
2013-03-23 08:25:00,79.6,77.1,29.90,East,94,1.9,5.0,92,0.30,,BKN060,0.43,VWS V13.01,2013-03-22 22:25:00,
2013-03-23 08:30:00,79.1,76.6,29.90,NW,310,0.6,5.0,92,0.30,,BKN060,0.43,VWS V13.01,2013-03-22 22:30:00,
2013-03-23 08:35:00,79.1,76.6,29.90,ESE,106,1.9,5.0,92,0.30,,BKN060,0.45,VWS V13.01,2013-03-22 22:35:00,
2013-03-23 08:45:00,79.3,76.8,29.90,ESE,112,1.9,10.0,92,0.36,,BKN060,0.49,VWS V13.01,2013-03-22 22:45:00,
2013-03-23 09:00:00,79.4,76.9,29.91,ESE,112,0.6,0.0,92,0.67,,BKN060,0.80,VWS V13.01,2013-03-22 23:00:00,
2013-03-23 09:15:00,79.0,76.5,29.91,ESE,112,0.6,0.0,92,0.69,,BKN060,0.81,VWS V13.01,2013-03-22 23:15:00,
2013-03-23 09:30:00,-999.9,-99.9,29.92,SE,137,4.0,4.0,255,-99.99,,,0.78,Wunderground v.1.15,2013-03-22 23:30:00,
2013-03-23 09:45:00,78.6,76.7,29.92,ESE,112,5.6,17.5,94,0.69,,BKN060,0.82,VWS V13.01,2013-03-22 23:45:00,
2013-03-23 10:00:00,79.3,77.1,29.92,ESE,112,5.6,18.7,93,0.33,,BKN060,0.82,VWS V13.01,2013-03-23 00:00:00,
2013-03-23 10:15:00,79.4,76.9,29.92,ESE,112,4.4,10.0,92,0.02,,BKN060,0.82,VWS V13.01,2013-03-23 00:15:00,
2013-03-23 10:30:00,80.1,76.9,29.93,ESE,112,8.1,20.0,90,0.02,,BKN060,0.83,VWS V13.01,2013-03-23 00:30:00,
2013-03-23 10:45:00,79.2,76.7,29.92,ESE,112,6.9,18.7,92,0.05,,BKN060,0.86,VWS V13.01,2013-03-23 00:45:00,
2013-03-23 11:00:00,79.1,76.9,29.92,ESE,112,4.4,13.7,93,0.06,,BKN060,0.87,VWS V13.01,2013-03-23 01:00:00,
2013-03-23 11:15:00,79.4,77.2,29.90,ESE,112,1.9,8.7,93,0.06,,BKN060,0.88,VWS V13.01,2013-03-23 01:15:00,
2013-03-23 11:30:00,79.1,76.9,29.91,ESE,112,6.9,22.5,93,0.24,,BKN060,1.06,VWS V13.01,2013-03-23 01:30:00,
2013-03-23 11:45:00,78.2,76.7,29.90,ESE,112,5.6,16.3,95,0.26,,BKN060,1.09,VWS V13.01,2013-03-23 01:45:00,
2013-03-23 12:00:00,78.8,77.2,29.89,ESE,112,4.4,12.5,95,0.24,,BKN060,1.09,VWS V13.01,2013-03-23 02:00:00,
2013-03-23 12:15:00,79.2,77.0,29.89,SE,135,4.4,10.0,93,0.22,,BKN060,1.09,VWS V13.01,2013-03-23 02:15:00,
2013-03-23 12:30:00,78.8,76.9,29.88,ESE,112,3.1,10.0,94,0.23,,BKN060,1.11,VWS V13.01,2013-03-23 02:30:00,
2013-03-23 12:45:00,78.8,76.9,29.88,SE,135,1.9,6.2,94,0.06,,BKN060,1.11,VWS V13.01,2013-03-23 02:45:00,
2013-03-23 13:00:00,78.8,76.9,29.88,ESE,112,1.9,10.0,94,0.11,,BKN060,1.20,VWS V13.01,2013-03-23 03:00:00,
2013-03-23 13:15:00,78.3,76.8,29.87,ESE,112,3.1,11.3,95,0.13,,BKN060,1.22,VWS V13.01,2013-03-23 03:15:00,
2013-03-23 13:30:00,78.3,76.8,29.86,SE,135,1.9,7.5,95,0.13,,BKN060,1.22,VWS V13.01,2013-03-23 03:30:00,
2013-03-23 13:45:00,78.3,76.8,29.85,SSW,202,1.9,5.0,95,0.11,,BKN060,1.22,VWS V13.01,2013-03-23 03:45:00,
2013-03-23 14:00:00,78.0,76.5,29.84,ESE,112,1.9,6.2,95,0.12,,BKN060,1.23,VWS V13.01,2013-03-23 04:00:00,
2013-03-23 14:15:00,78.1,76.6,29.84,ESE,112,1.9,5.0,95,0.03,,BKN060,1.23,VWS V13.01,2013-03-23 04:15:00,
2013-03-23 14:30:00,78.2,76.7,29.83,SE,135,0.6,5.0,95,0.01,,BKN060,1.23,VWS V13.01,2013-03-23 04:30:00,
2013-03-23 14:45:00,78.4,76.8,29.83,SE,135,0.6,2.5,95,0.01,,BKN060,1.23,VWS V13.01,2013-03-23 04:45:00,
2013-03-23 15:00:00,78.6,77.1,29.83,SE,135,0.6,0.0,95,0.01,,BKN060,1.23,VWS V13.01,2013-03-23 05:00:00,
2013-03-23 15:15:00,78.7,77.2,29.83,ESE,112,0.6,2.5,95,0.00,,BKN060,1.23,VWS V13.01,2013-03-23 05:15:00,
2013-03-23 15:30:00,79.0,77.1,29.83,ESE,112,1.9,10.0,94,0.00,,BKN060,1.23,VWS V13.01,2013-03-23 05:30:00,
2013-03-23 15:45:00,79.1,76.6,29.83,SE,135,4.4,13.7,92,0.00,,BKN060,1.23,VWS V13.01,2013-03-23 05:45:00,
2013-03-23 16:00:00,79.7,76.8,29.83,ESE,112,4.4,15.0,91,0.00,,BKN060,1.23,VWS V13.01,2013-03-23 06:00:00,
2013-03-23 16:15:00,80.6,76.4,29.84,ESE,112,5.6,13.7,87,0.00,,BKN060,1.23,VWS V13.01,2013-03-23 06:15:00,
2013-03-23 16:30:00,81.3,77.1,29.84,ESE,112,4.4,10.0,87,0.00,,BKN060,1.23,VWS V13.01,2013-03-23 06:30:00,
2013-03-23 16:45:00,81.3,76.7,29.84,ESE,112,4.4,11.3,86,0.00,,BKN060,1.23,VWS V13.01,2013-03-23 06:45:00,
2013-03-23 17:08:00,81.4,77.5,29.84,ESE,112,1.9,8.7,88,0.00,,BKN060,1.23,VWS V13.01,2013-03-23 07:08:00,
2013-03-23 17:13:00,79.9,76.7,29.85,SE,124,6.9,8.7,90,0.15,,BKN060,1.38,VWS V13.01,2013-03-23 07:13:00,
2013-03-23 17:30:00,79.1,76.6,29.85,SE,135,3.1,10.0,92,0.15,,BKN060,1.38,VWS V13.01,2013-03-23 07:30:00,
2013-03-23 17:45:00,78.4,75.9,29.86,SE,135,0.6,3.8,92,0.15,,BKN060,1.38,VWS V13.01,2013-03-23 07:45:00,
2013-03-23 18:00:00,78.2,76.0,29.86,South,180,0.6,2.5,93,0.15,,BKN060,1.38,VWS V13.01,2013-03-23 08:00:00,
2013-03-23 18:15:00,78.2,76.0,29.86,SE,135,0.6,5.0,93,0.15,,BKN060,1.38,VWS V13.01,2013-03-23 08:15:00,
2013-03-23 18:30:00,78.2,76.0,29.86,SE,135,1.9,7.5,93,0.00,,BKN060,1.38,VWS V13.01,2013-03-23 08:30:00,
2013-03-23 18:45:00,78.3,75.8,29.87,SSW,202,1.9,6.2,92,0.00,,BKN060,1.38,VWS V13.01,2013-03-23 08:45:00,
2013-03-23 19:00:00,78.4,75.9,29.86,ESE,112,0.6,3.8,92,0.00,,BKN060,1.38,VWS V13.01,2013-03-23 09:00:00,
2013-03-23 19:15:00,78.4,75.9,29.87,ESE,112,0.6,5.0,92,0.00,,BKN060,1.38,VWS V13.01,2013-03-23 09:15:00,
2013-03-23 19:30:00,78.4,75.6,29.87,SE,135,0.6,3.8,91,0.00,,BKN060,1.38,VWS V13.01,2013-03-23 09:30:00,
2013-03-23 19:45:00,78.5,75.7,29.87,ESE,112,1.9,2.5,91,0.00,,BKN060,1.38,VWS V13.01,2013-03-23 09:45:00,
2013-03-23 20:00:00,78.7,75.9,29.87,ENE,68,0.6,2.5,91,0.00,,BKN060,1.38,VWS V13.01,2013-03-23 10:00:00,
2013-03-23 20:15:00,78.5,75.7,29.88,SE,135,0.6,3.8,91,0.00,,BKN060,1.38,VWS V13.01,2013-03-23 10:15:00,
2013-03-23 20:30:00,78.4,75.6,29.88,SE,135,0.6,0.0,91,0.00,,BKN060,1.38,VWS V13.01,2013-03-23 10:30:00,
2013-03-23 20:45:00,78.1,75.3,29.88,ESE,112,0.6,6.2,91,0.01,,BKN060,1.39,VWS V13.01,2013-03-23 10:45:00,
2013-03-23 21:00:00,77.8,75.3,29.88,SE,135,1.9,6.2,92,0.01,,BKN060,1.39,VWS V13.01,2013-03-23 11:00:00,
2013-03-23 21:15:00,77.8,75.3,29.89,SE,135,1.9,5.0,92,0.01,,BKN060,1.39,VWS V13.01,2013-03-23 11:15:00,
2013-03-23 21:30:00,77.8,75.3,29.89,SE,135,1.9,7.5,92,0.01,,BKN060,1.39,VWS V13.01,2013-03-23 11:30:00,
2013-03-23 21:45:00,77.9,75.1,29.89,SE,135,1.9,7.5,91,0.01,,BKN060,1.39,VWS V13.01,2013-03-23 11:45:00,
2013-03-23 22:00:00,77.9,75.4,29.89,ESE,112,1.9,7.5,92,0.01,,BKN060,1.39,VWS V13.01,2013-03-23 12:00:00,
2013-03-23 22:15:00,77.7,75.5,29.89,SE,135,1.9,5.0,93,0.01,,BKN060,1.39,VWS V13.01,2013-03-23 12:15:00,
2013-03-23 22:30:00,77.5,75.3,29.89,SE,135,0.6,5.0,93,0.01,,BKN060,1.39,VWS V13.01,2013-03-23 12:30:00,
2013-03-23 22:45:00,77.3,75.1,29.89,SE,135,0.6,7.5,93,0.01,,BKN060,1.39,VWS V13.01,2013-03-23 12:45:00,
2013-03-23 23:00:00,77.4,74.9,29.89,SE,135,1.9,8.7,92,0.01,,BKN060,1.39,VWS V13.01,2013-03-23 13:00:00,
2013-03-23 23:15:00,77.4,74.9,29.89,ESE,112,1.9,5.0,92,0.00,,BKN060,1.39,VWS V13.01,2013-03-23 13:15:00,
2013-03-23 23:30:00,77.4,74.9,29.88,SE,135,1.9,3.8,92,0.00,,BKN060,1.39,VWS V13.01,2013-03-23 13:30:00,
2013-03-23 23:45:00,77.6,74.8,29.88,ESE,112,1.9,5.0,91,0.00,,BKN060,1.39,VWS V13.01,2013-03-23 13:45:00,